sensor_id;sensor_type;location;lat;lon;timestamp;pressure;altitude;pressure_sealevel;temperature;humidity
59170;BME280;52474;52.236;5.114;2024-03-23T00:54:03;100906.78;;;6.27;100.00
59170;BME280;52474;52.236;5.114;2024-03-23T00:56:29;100901.72;;;6.23;100.00
59170;BME280;52474;52.236;5.114;2024-03-23T00:58:55;100889.72;;;6.19;100.00
59170;BME280;52474;52.236;5.114;2024-03-23T01:01:20;100895.28;;;6.15;100.00
59170;BME280;52474;52.236;5.114;2024-03-23T01:03:46;100887.69;;;6.10;100.00
59170;BME280;52474;52.236;5.114;2024-03-23T01:06:12;100882.56;;;6.09;100.00
59170;BME280;52474;52.236;5.114;2024-03-23T01:08:37;100880.59;;;5.98;100.00
59170;BME280;52474;52.236;5.114;2024-03-23T01:11:03;100876.31;;;5.82;100.00
59170;BME280;52474;52.236;5.114;2024-03-23T01:13:29;100874.66;;;5.81;100.00
59170;BME280;52474;52.236;5.114;2024-03-23T01:15:56;100829.31;;;5.51;100.00
59170;BME280;52474;52.236;5.114;2024-03-23T01:18:22;100850.50;;;5.62;100.00
59170;BME280;52474;52.236;5.114;2024-03-23T01:20:49;100847.63;;;5.52;100.00
59170;BME280;52474;52.236;5.114;2024-03-23T01:23:15;100858.75;;;5.56;100.00
59170;BME280;52474;52.236;5.114;2024-03-23T01:25:40;100848.66;;;5.50;100.00
59170;BME280;52474;52.236;5.114;2024-03-23T01:28:07;100848.41;;;5.40;100.00
59170;BME280;52474;52.236;5.114;2024-03-23T01:30:36;100831.28;;;5.20;100.00
59170;BME280;52474;52.236;5.114;2024-03-23T01:33:02;100835.25;;;5.13;100.00
59170;BME280;52474;52.236;5.114;2024-03-23T01:35:30;100834.03;;;5.04;100.00
59170;BME280;52474;52.236;5.114;2024-03-23T01:37:56;100847.06;;;5.06;100.00
59170;BME280;52474;52.236;5.114;2024-03-23T01:40:22;100840.59;;;4.97;100.00
59170;BME280;52474;52.236;5.114;2024-03-23T01:42:57;100840.91;;;4.92;100.00
59170;BME280;52474;52.236;5.114;2024-03-23T01:45:24;100845.41;;;4.90;100.00
59170;BME280;52474;52.236;5.114;2024-03-23T01:47:52;100827.50;;;4.83;100.00
59170;BME280;52474;52.236;5.114;2024-03-23T01:50:19;100838.16;;;4.94;100.00
59170;BME280;52474;52.236;5.114;2024-03-23T01:52:46;100827.66;;;4.94;100.00
59170;BME280;52474;52.236;5.114;2024-03-23T01:55:12;100835.25;;;4.99;100.00
59170;BME280;52474;52.236;5.114;2024-03-23T01:57:37;100836.56;;;5.06;100.00
59170;BME280;52474;52.236;5.114;2024-03-23T02:00:04;100839.81;;;5.09;100.00
59170;BME280;52474;52.236;5.114;2024-03-23T02:02:55;100824.53;;;5.16;100.00
59170;BME280;52474;52.236;5.114;2024-03-23T02:05:21;100834.47;;;5.25;100.00
59170;BME280;52474;52.236;5.114;2024-03-23T02:07:47;100830.47;;;5.20;100.00
59170;BME280;52474;52.236;5.114;2024-03-23T02:10:13;100832.53;;;5.14;100.00
59170;BME280;52474;52.236;5.114;2024-03-23T02:12:39;100827.38;;;5.13;100.00
59170;BME280;52474;52.236;5.114;2024-03-23T02:15:05;100814.72;;;5.05;100.00
59170;BME280;52474;52.236;5.114;2024-03-23T02:17:34;100824.47;;;5.03;100.00
59170;BME280;52474;52.236;5.114;2024-03-23T02:20:00;100824.41;;;5.05;100.00
59170;BME280;52474;52.236;5.114;2024-03-23T02:22:35;100817.28;;;4.92;100.00
59170;BME280;52474;52.236;5.114;2024-03-23T02:25:02;100797.69;;;4.84;100.00
59170;BME280;52474;52.236;5.114;2024-03-23T02:27:28;100788.72;;;4.73;100.00
59170;BME280;52474;52.236;5.114;2024-03-23T02:29:54;100811.75;;;4.83;100.00
59170;BME280;52474;52.236;5.114;2024-03-23T02:32:19;100807.34;;;4.83;100.00
59170;BME280;52474;52.236;5.114;2024-03-23T02:34:45;100814.84;;;4.75;100.00
59170;BME280;52474;52.236;5.114;2024-03-23T02:37:11;100791.81;;;4.66;100.00
59170;BME280;52474;52.236;5.114;2024-03-23T02:39:37;100800.72;;;4.63;100.00
59170;BME280;52474;52.236;5.114;2024-03-23T02:42:03;100800.97;;;4.59;100.00
59170;BME280;52474;52.236;5.114;2024-03-23T02:44:28;100803.59;;;4.59;100.00
59170;BME280;52474;52.236;5.114;2024-03-23T02:46:54;100780.00;;;4.44;100.00
59170;BME280;52474;52.236;5.114;2024-03-23T02:49:19;100798.91;;;4.49;100.00
59170;BME280;52474;52.236;5.114;2024-03-23T02:51:46;100791.59;;;4.40;100.00
59170;BME280;52474;52.236;5.114;2024-03-23T02:54:14;100790.94;;;4.37;100.00
59170;BME280;52474;52.236;5.114;2024-03-23T02:56:39;100801.06;;;4.43;100.00
59170;BME280;52474;52.236;5.114;2024-03-23T02:59:05;100797.78;;;4.39;100.00
59170;BME280;52474;52.236;5.114;2024-03-23T03:01:31;100806.59;;;4.38;100.00
59170;BME280;52474;52.236;5.114;2024-03-23T03:03:56;100796.28;;;4.35;100.00
59170;BME280;52474;52.236;5.114;2024-03-23T03:06:23;100790.28;;;4.19;100.00
59170;BME280;52474;52.236;5.114;2024-03-23T03:08:49;100810.22;;;4.21;100.00
59170;BME280;52474;52.236;5.114;2024-03-23T03:11:15;100781.09;;;4.12;100.00
59170;BME280;52474;52.236;5.114;2024-03-23T03:13:40;100787.09;;;4.14;100.00
59170;BME280;52474;52.236;5.114;2024-03-23T03:16:11;100802.44;;;4.20;100.00
59170;BME280;52474;52.236;5.114;2024-03-23T03:18:38;100797.28;;;4.04;100.00
59170;BME280;52474;52.236;5.114;2024-03-23T03:21:05;100800.81;;;4.03;100.00
59170;BME280;52474;52.236;5.114;2024-03-23T03:23:34;100791.06;;;3.91;100.00
59170;BME280;52474;52.236;5.114;2024-03-23T03:25:59;100802.03;;;3.97;100.00
59170;BME280;52474;52.236;5.114;2024-03-23T03:28:25;100750.38;;;3.69;100.00
59170;BME280;52474;52.236;5.114;2024-03-23T03:30:51;100790.28;;;3.88;100.00
59170;BME280;52474;52.236;5.114;2024-03-23T03:33:17;100791.72;;;3.94;100.00
59170;BME280;52474;52.236;5.114;2024-03-23T03:35:42;100799.09;;;3.87;100.00
59170;BME280;52474;52.236;5.114;2024-03-23T03:38:08;100775.88;;;3.81;100.00
59170;BME280;52474;52.236;5.114;2024-03-23T03:40:35;100788.50;;;3.75;100.00
59170;BME280;52474;52.236;5.114;2024-03-23T03:43:00;100784.94;;;3.76;100.00
59170;BME280;52474;52.236;5.114;2024-03-23T03:45:26;100780.91;;;3.70;100.00
59170;BME280;52474;52.236;5.114;2024-03-23T03:47:52;100790.44;;;3.71;100.00
59170;BME280;52474;52.236;5.114;2024-03-23T03:50:18;100788.94;;;3.67;100.00
59170;BME280;52474;52.236;5.114;2024-03-23T03:52:43;100783.19;;;3.60;100.00
59170;BME280;52474;52.236;5.114;2024-03-23T03:55:13;100779.69;;;3.76;100.00
59170;BME280;52474;52.236;5.114;2024-03-23T03:57:39;100762.03;;;3.79;100.00
59170;BME280;52474;52.236;5.114;2024-03-23T04:00:06;100780.69;;;4.03;100.00
59170;BME280;52474;52.236;5.114;2024-03-23T04:02:31;100775.09;;;4.09;100.00
59170;BME280;52474;52.236;5.114;2024-03-23T04:04:57;100776.50;;;4.15;100.00
59170;BME280;52474;52.236;5.114;2024-03-23T04:07:22;100771.78;;;4.06;100.00
59170;BME280;52474;52.236;5.114;2024-03-23T04:09:49;100753.03;;;3.83;100.00
59170;BME280;52474;52.236;5.114;2024-03-23T04:12:15;100776.34;;;3.88;100.00
59170;BME280;52474;52.236;5.114;2024-03-23T04:14:40;100772.84;;;3.73;100.00
59170;BME280;52474;52.236;5.114;2024-03-23T04:17:06;100769.59;;;3.70;100.00
59170;BME280;52474;52.236;5.114;2024-03-23T04:19:32;100763.00;;;3.62;100.00
59170;BME280;52474;52.236;5.114;2024-03-23T04:21:57;100771.69;;;3.63;100.00
59170;BME280;52474;52.236;5.114;2024-03-23T04:24:23;100769.78;;;3.51;100.00
59170;BME280;52474;52.236;5.114;2024-03-23T04:26:50;100766.00;;;3.40;100.00
59170;BME280;52474;52.236;5.114;2024-03-23T04:29:15;100777.63;;;3.51;100.00
59170;BME280;52474;52.236;5.114;2024-03-23T04:31:41;100770.63;;;3.51;100.00
59170;BME280;52474;52.236;5.114;2024-03-23T04:34:06;100750.13;;;3.43;100.00
59170;BME280;52474;52.236;5.114;2024-03-23T04:36:32;100774.00;;;3.53;100.00
59170;BME280;52474;52.236;5.114;2024-03-23T04:38:59;100772.72;;;3.60;100.00
59170;BME280;52474;52.236;5.114;2024-03-23T04:41:25;100747.44;;;3.45;100.00
59170;BME280;52474;52.236;5.114;2024-03-23T04:43:51;100766.06;;;3.55;100.00
59170;BME280;52474;52.236;5.114;2024-03-23T04:46:17;100778.47;;;3.67;100.00
59170;BME280;52474;52.236;5.114;2024-03-23T04:48:42;100775.91;;;3.65;100.00
59170;BME280;52474;52.236;5.114;2024-03-23T04:51:10;100767.03;;;3.68;100.00
59170;BME280;52474;52.236;5.114;2024-03-23T04:53:38;100774.06;;;3.68;100.00
59170;BME280;52474;52.236;5.114;2024-03-23T04:56:03;100760.22;;;3.65;100.00
59170;BME280;52474;52.236;5.114;2024-03-23T04:58:29;100771.25;;;3.71;100.00
59170;BME280;52474;52.236;5.114;2024-03-23T05:00:56;100749.81;;;3.64;100.00
59170;BME280;52474;52.236;5.114;2024-03-23T05:03:22;100766.19;;;3.68;100.00
59170;BME280;52474;52.236;5.114;2024-03-23T05:05:48;100772.09;;;3.71;100.00
59170;BME280;52474;52.236;5.114;2024-03-23T05:08:15;100774.25;;;3.64;100.00
59170;BME280;52474;52.236;5.114;2024-03-23T05:10:44;100756.25;;;3.58;100.00
59170;BME280;52474;52.236;5.114;2024-03-23T05:13:09;100768.50;;;3.58;100.00
59170;BME280;52474;52.236;5.114;2024-03-23T05:15:35;100763.44;;;3.55;100.00
59170;BME280;52474;52.236;5.114;2024-03-23T05:18:01;100773.13;;;3.69;100.00
59170;BME280;52474;52.236;5.114;2024-03-23T05:20:27;100781.09;;;3.67;100.00
59170;BME280;52474;52.236;5.114;2024-03-23T05:22:54;100775.72;;;3.69;100.00
59170;BME280;52474;52.236;5.114;2024-03-23T05:25:20;100771.00;;;3.75;100.00
59170;BME280;52474;52.236;5.114;2024-03-23T05:27:45;100754.97;;;3.65;100.00
59170;BME280;52474;52.236;5.114;2024-03-23T05:30:11;100766.28;;;3.66;100.00
59170;BME280;52474;52.236;5.114;2024-03-23T05:32:37;100776.28;;;3.90;100.00
59170;BME280;52474;52.236;5.114;2024-03-23T05:35:07;100766.75;;;4.03;100.00
59170;BME280;52474;52.236;5.114;2024-03-23T05:37:33;100766.47;;;4.07;100.00
59170;BME280;52474;52.236;5.114;2024-03-23T05:40:00;100772.97;;;4.16;100.00
59170;BME280;52474;52.236;5.114;2024-03-23T05:42:25;100761.16;;;4.09;100.00
59170;BME280;52474;52.236;5.114;2024-03-23T05:44:52;100775.09;;;4.09;100.00
59170;BME280;52474;52.236;5.114;2024-03-23T05:47:17;100778.28;;;4.15;100.00
59170;BME280;52474;52.236;5.114;2024-03-23T05:49:43;100769.22;;;4.20;100.00
59170;BME280;52474;52.236;5.114;2024-03-23T05:52:10;100760.13;;;4.12;100.00
59170;BME280;52474;52.236;5.114;2024-03-23T05:54:36;100777.63;;;4.25;100.00
59170;BME280;52474;52.236;5.114;2024-03-23T05:57:03;100781.78;;;4.29;100.00
59170;BME280;52474;52.236;5.114;2024-03-23T05:59:28;100770.72;;;4.39;100.00
59170;BME280;52474;52.236;5.114;2024-03-23T06:01:54;100750.94;;;4.33;100.00
59170;BME280;52474;52.236;5.114;2024-03-23T06:04:20;100785.72;;;4.51;100.00
59170;BME280;52474;52.236;5.114;2024-03-23T06:06:46;100764.53;;;4.40;100.00
59170;BME280;52474;52.236;5.114;2024-03-23T06:09:12;100781.59;;;4.47;100.00
59170;BME280;52474;52.236;5.114;2024-03-23T06:11:38;100786.84;;;4.47;100.00
59170;BME280;52474;52.236;5.114;2024-03-23T06:14:03;100788.22;;;4.52;100.00
59170;BME280;52474;52.236;5.114;2024-03-23T06:16:29;100789.94;;;4.54;100.00
59170;BME280;52474;52.236;5.114;2024-03-23T06:18:56;100793.13;;;4.59;100.00
59170;BME280;52474;52.236;5.114;2024-03-23T06:21:22;100778.22;;;4.59;100.00
59170;BME280;52474;52.236;5.114;2024-03-23T06:23:51;100769.97;;;4.65;100.00
59170;BME280;52474;52.236;5.114;2024-03-23T06:26:18;100776.91;;;4.81;100.00
59170;BME280;52474;52.236;5.114;2024-03-23T06:28:44;100782.63;;;4.87;100.00
59170;BME280;52474;52.236;5.114;2024-03-23T06:31:10;100783.72;;;4.98;100.00
59170;BME280;52474;52.236;5.114;2024-03-23T06:33:36;100773.56;;;5.06;100.00
59170;BME280;52474;52.236;5.114;2024-03-23T06:36:03;100780.94;;;5.13;100.00
59170;BME280;52474;52.236;5.114;2024-03-23T06:38:29;100786.75;;;5.19;100.00
59170;BME280;52474;52.236;5.114;2024-03-23T06:40:54;100787.66;;;5.32;100.00
59170;BME280;52474;52.236;5.114;2024-03-23T06:43:20;100789.03;;;5.37;100.00
59170;BME280;52474;52.236;5.114;2024-03-23T06:45:55;100778.53;;;5.37;100.00
59170;BME280;52474;52.236;5.114;2024-03-23T06:48:21;100791.09;;;5.47;100.00
59170;BME280;52474;52.236;5.114;2024-03-23T06:50:47;100775.31;;;5.47;100.00
59170;BME280;52474;52.236;5.114;2024-03-23T06:53:13;100796.09;;;5.64;100.00
59170;BME280;52474;52.236;5.114;2024-03-23T06:55:40;100782.94;;;5.64;100.00
59170;BME280;52474;52.236;5.114;2024-03-23T06:58:05;100788.00;;;5.80;100.00
59170;BME280;52474;52.236;5.114;2024-03-23T07:00:32;100787.13;;;5.94;100.00
59170;BME280;52474;52.236;5.114;2024-03-23T07:02:58;100787.06;;;6.21;100.00
59170;BME280;52474;52.236;5.114;2024-03-23T07:05:23;100782.84;;;6.18;100.00
59170;BME280;52474;52.236;5.114;2024-03-23T07:07:49;100802.00;;;6.46;100.00
59170;BME280;52474;52.236;5.114;2024-03-23T07:10:15;100779.59;;;6.40;100.00
59170;BME280;52474;52.236;5.114;2024-03-23T07:12:40;100783.16;;;6.27;100.00
59170;BME280;52474;52.236;5.114;2024-03-23T07:15:07;100805.91;;;6.40;100.00
59170;BME280;52474;52.236;5.114;2024-03-23T07:17:33;100795.78;;;6.73;100.00
59170;BME280;52474;52.236;5.114;2024-03-23T07:20:03;100798.09;;;6.64;100.00
59170;BME280;52474;52.236;5.114;2024-03-23T07:22:30;100814.72;;;6.78;100.00
59170;BME280;52474;52.236;5.114;2024-03-23T07:25:00;100822.25;;;7.08;100.00
59170;BME280;52474;52.236;5.114;2024-03-23T07:27:26;100828.00;;;7.50;100.00
59170;BME280;52474;52.236;5.114;2024-03-23T07:29:51;100827.84;;;7.16;100.00
59170;BME280;52474;52.236;5.114;2024-03-23T07:32:17;100834.22;;;6.75;100.00
59170;BME280;52474;52.236;5.114;2024-03-23T07:34:43;100827.69;;;6.68;100.00
59170;BME280;52474;52.236;5.114;2024-03-23T07:37:10;100814.47;;;6.94;100.00
59170;BME280;52474;52.236;5.114;2024-03-23T07:39:36;100841.53;;;6.96;100.00
59170;BME280;52474;52.236;5.114;2024-03-23T07:42:02;100843.63;;;7.03;100.00
59170;BME280;52474;52.236;5.114;2024-03-23T07:44:28;100822.78;;;7.37;100.00
59170;BME280;52474;52.236;5.114;2024-03-23T07:46:53;100839.47;;;7.97;100.00
59170;BME280;52474;52.236;5.114;2024-03-23T07:49:19;100844.66;;;7.99;100.00
59170;BME280;52474;52.236;5.114;2024-03-23T07:51:45;100841.59;;;7.57;100.00
59170;BME280;52474;52.236;5.114;2024-03-23T07:54:10;100832.47;;;7.73;100.00
59170;BME280;52474;52.236;5.114;2024-03-23T07:56:36;100826.00;;;7.53;100.00
59170;BME280;52474;52.236;5.114;2024-03-23T07:59:02;100842.94;;;7.86;100.00
59170;BME280;52474;52.236;5.114;2024-03-23T08:01:28;100834.31;;;8.20;100.00
59170;BME280;52474;52.236;5.114;2024-03-23T08:03:54;100860.78;;;8.42;100.00
59170;BME280;52474;52.236;5.114;2024-03-23T08:06:20;100858.19;;;7.94;100.00
59170;BME280;52474;52.236;5.114;2024-03-23T08:08:57;100854.38;;;7.50;100.00
59170;BME280;52474;52.236;5.114;2024-03-23T08:11:27;100846.25;;;7.77;100.00
59170;BME280;52474;52.236;5.114;2024-03-23T08:13:53;100858.41;;;7.67;100.00
59170;BME280;52474;52.236;5.114;2024-03-23T08:16:19;100852.38;;;7.53;100.00
59170;BME280;52474;52.236;5.114;2024-03-23T08:18:45;100857.34;;;7.69;100.00
59170;BME280;52474;52.236;5.114;2024-03-23T08:21:10;100851.84;;;7.72;100.00
59170;BME280;52474;52.236;5.114;2024-03-23T08:23:37;100861.94;;;7.79;100.00
59170;BME280;52474;52.236;5.114;2024-03-23T08:26:09;100854.38;;;7.98;100.00
59170;BME280;52474;52.236;5.114;2024-03-23T08:28:36;100870.59;;;7.57;100.00
59170;BME280;52474;52.236;5.114;2024-03-23T08:31:04;100848.75;;;8.03;100.00
59170;BME280;52474;52.236;5.114;2024-03-23T08:33:31;100862.97;;;8.82;100.00
59170;BME280;52474;52.236;5.114;2024-03-23T08:36:01;100854.91;;;12.18;100.00
59170;BME280;52474;52.236;5.114;2024-03-23T08:38:27;100906.47;;;15.93;100.00
59170;BME280;52474;52.236;5.114;2024-03-23T08:41:07;100953.50;;;18.50;100.00
59170;BME280;52474;52.236;5.114;2024-03-23T08:43:35;100937.22;;;14.50;100.00
59170;BME280;52474;52.236;5.114;2024-03-23T08:46:14;100930.56;;;18.01;100.00
59170;BME280;52474;52.236;5.114;2024-03-23T08:48:42;100928.78;;;14.37;100.00
59170;BME280;52474;52.236;5.114;2024-03-23T08:51:10;100916.19;;;11.86;100.00
59170;BME280;52474;52.236;5.114;2024-03-23T08:53:36;100894.94;;;15.34;100.00
59170;BME280;52474;52.236;5.114;2024-03-23T08:56:03;100938.78;;;17.69;100.00
59170;BME280;52474;52.236;5.114;2024-03-23T08:58:29;100936.94;;;13.54;100.00
59170;BME280;52474;52.236;5.114;2024-03-23T09:00:57;100917.94;;;10.43;100.00
59170;BME280;52474;52.236;5.114;2024-03-23T09:03:26;100872.19;;;11.13;100.00
59170;BME280;52474;52.236;5.114;2024-03-23T09:05:52;100921.78;;;18.39;100.00
59170;BME280;52474;52.236;5.114;2024-03-23T09:08:18;100940.69;;;18.60;100.00
59170;BME280;52474;52.236;5.114;2024-03-23T09:10:44;100919.50;;;13.42;100.00
59170;BME280;52474;52.236;5.114;2024-03-23T09:13:10;100883.41;;;11.87;100.00
59170;BME280;52474;52.236;5.114;2024-03-23T09:15:37;100882.88;;;15.30;100.00
59170;BME280;52474;52.236;5.114;2024-03-23T09:18:03;100888.03;;;12.90;100.00
59170;BME280;52474;52.236;5.114;2024-03-23T09:20:33;100870.72;;;10.27;100.00
59170;BME280;52474;52.236;5.114;2024-03-23T09:22:58;100870.03;;;9.93;100.00
59170;BME280;52474;52.236;5.114;2024-03-23T09:25:24;100842.50;;;12.75;100.00
59170;BME280;52474;52.236;5.114;2024-03-23T09:27:50;100910.22;;;18.76;100.00
59170;BME280;52474;52.236;5.114;2024-03-23T09:30:16;100916.56;;;20.93;100.00
59170;BME280;52474;52.236;5.114;2024-03-23T09:32:43;100931.44;;;22.40;100.00
59170;BME280;52474;52.236;5.114;2024-03-23T09:35:10;100916.59;;;23.29;100.00
59170;BME280;52474;52.236;5.114;2024-03-23T09:37:36;100917.56;;;18.21;100.00
59170;BME280;52474;52.236;5.114;2024-03-23T09:40:02;100914.00;;;13.06;100.00
59170;BME280;52474;52.236;5.114;2024-03-23T09:42:28;100885.28;;;11.05;100.00
59170;BME280;52474;52.236;5.114;2024-03-23T09:44:57;100880.09;;;10.31;100.00
59170;BME280;52474;52.236;5.114;2024-03-23T09:47:24;100876.13;;;17.15;100.00
59170;BME280;52474;52.236;5.114;2024-03-23T09:49:50;100924.88;;;20.21;100.00
59170;BME280;52474;52.236;5.114;2024-03-23T09:52:17;100916.88;;;22.41;100.00
59170;BME280;52474;52.236;5.114;2024-03-23T09:54:42;100928.59;;;23.40;100.00
59170;BME280;52474;52.236;5.114;2024-03-23T09:57:08;100918.94;;;23.64;100.00
59170;BME280;52474;52.236;5.114;2024-03-23T09:59:34;100932.72;;;19.49;100.00
59170;BME280;52474;52.236;5.114;2024-03-23T10:02:01;100910.94;;;13.01;100.00
59170;BME280;52474;52.236;5.114;2024-03-23T10:04:40;100889.41;;;15.86;100.00
59170;BME280;52474;52.236;5.114;2024-03-23T10:07:14;100930.41;;;18.03;100.00
59170;BME280;52474;52.236;5.114;2024-03-23T10:09:40;100919.78;;;13.66;100.00
59170;BME280;52474;52.236;5.114;2024-03-23T10:12:17;100903.25;;;12.12;100.00
59170;BME280;52474;52.236;5.114;2024-03-23T10:14:44;100899.16;;;10.98;100.00
59170;BME280;52474;52.236;5.114;2024-03-23T10:17:17;100902.97;;;12.34;100.00
59170;BME280;52474;52.236;5.114;2024-03-23T10:19:45;100895.69;;;17.47;100.00
59170;BME280;52474;52.236;5.114;2024-03-23T10:22:14;100894.91;;;22.38;100.00
59170;BME280;52474;52.236;5.114;2024-03-23T10:24:41;100916.63;;;22.03;100.00
59170;BME280;52474;52.236;5.114;2024-03-23T10:27:07;100925.16;;;18.56;100.00
59170;BME280;52474;52.236;5.114;2024-03-23T10:29:33;100924.63;;;17.52;100.00
59170;BME280;52474;52.236;5.114;2024-03-23T10:32:09;100918.75;;;13.49;100.00
59170;BME280;52474;52.236;5.114;2024-03-23T10:34:35;100908.53;;;12.60;100.00
59170;BME280;52474;52.236;5.114;2024-03-23T10:37:02;100917.63;;;18.89;100.00
59170;BME280;52474;52.236;5.114;2024-03-23T10:39:39;100906.25;;;20.97;100.00
59170;BME280;52474;52.236;5.114;2024-03-23T10:42:06;100913.22;;;21.61;100.00
59170;BME280;52474;52.236;5.114;2024-03-23T10:44:36;100907.56;;;21.56;100.00
59170;BME280;52474;52.236;5.114;2024-03-23T10:47:02;100912.25;;;23.73;100.00
59170;BME280;52474;52.236;5.114;2024-03-23T10:49:30;100905.78;;;19.94;99.97
59170;BME280;52474;52.236;5.114;2024-03-23T10:52:05;100912.31;;;18.05;100.00
59170;BME280;52474;52.236;5.114;2024-03-23T10:54:32;100910.16;;;14.55;100.00
59170;BME280;52474;52.236;5.114;2024-03-23T10:57:26;100918.88;;;17.32;100.00
59170;BME280;52474;52.236;5.114;2024-03-23T10:59:55;100925.28;;;14.18;100.00
59170;BME280;52474;52.236;5.114;2024-03-23T11:02:22;100903.09;;;12.23;100.00
59170;BME280;52474;52.236;5.114;2024-03-23T11:04:47;100887.00;;;10.95;100.00
59170;BME280;52474;52.236;5.114;2024-03-23T11:07:31;100892.72;;;10.39;100.00
59170;BME280;52474;52.236;5.114;2024-03-23T11:09:58;100879.72;;;16.83;100.00
59170;BME280;52474;52.236;5.114;2024-03-23T11:15:04;100913.22;;;20.13;100.00
59170;BME280;52474;52.236;5.114;2024-03-23T11:17:30;100918.97;;;14.81;100.00
59170;BME280;52474;52.236;5.114;2024-03-23T11:25:21;100900.53;;;11.73;100.00
59170;BME280;52474;52.236;5.114;2024-03-23T11:27:52;100891.59;;;10.62;100.00
59170;BME280;52474;52.236;5.114;2024-03-23T11:30:21;100900.13;;;16.84;100.00
59170;BME280;52474;52.236;5.114;2024-03-23T11:32:55;100907.78;;;16.71;100.00
59170;BME280;52474;52.236;5.114;2024-03-23T11:35:35;100908.00;;;13.41;100.00
59170;BME280;52474;52.236;5.114;2024-03-23T11:38:04;100891.34;;;13.02;100.00
59170;BME280;52474;52.236;5.114;2024-03-23T11:40:30;100886.63;;;14.32;100.00
59170;BME280;52474;52.236;5.114;2024-03-23T11:43:04;100879.97;;;18.07;100.00
59170;BME280;52474;52.236;5.114;2024-03-23T11:50:37;100897.31;;;16.20;100.00
59170;BME280;52474;52.236;5.114;2024-03-23T11:53:20;100906.56;;;19.58;100.00
59170;BME280;52474;52.236;5.114;2024-03-23T11:55:50;100899.56;;;21.28;100.00
59170;BME280;52474;52.236;5.114;2024-03-23T11:58:18;100892.63;;;22.55;100.00
59170;BME280;52474;52.236;5.114;2024-03-23T12:00:51;100882.38;;;20.87;93.34
59170;BME280;52474;52.236;5.114;2024-03-23T12:03:18;100882.16;;;21.30;93.91
59170;BME280;52474;52.236;5.114;2024-03-23T12:05:49;100874.56;;;19.27;94.95
59170;BME280;52474;52.236;5.114;2024-03-23T12:10:48;100873.38;;;16.84;100.00
59170;BME280;52474;52.236;5.114;2024-03-23T12:13:21;100898.03;;;13.43;100.00
59170;BME280;52474;52.236;5.114;2024-03-23T12:15:49;100880.16;;;11.23;100.00
59170;BME280;52474;52.236;5.114;2024-03-23T12:18:15;100871.75;;;15.00;100.00
59170;BME280;52474;52.236;5.114;2024-03-23T12:20:41;100877.06;;;18.16;100.00
59170;BME280;52474;52.236;5.114;2024-03-23T12:23:12;100876.81;;;18.41;100.00
59170;BME280;52474;52.236;5.114;2024-03-23T12:25:41;100869.56;;;20.40;100.00
59170;BME280;52474;52.236;5.114;2024-03-23T12:28:07;100862.16;;;21.05;100.00
59170;BME280;52474;52.236;5.114;2024-03-23T12:30:39;100882.03;;;19.10;100.00
59170;BME280;52474;52.236;5.114;2024-03-23T12:33:05;100858.53;;;19.48;100.00
59170;BME280;52474;52.236;5.114;2024-03-23T12:35:31;100856.25;;;17.41;100.00
59170;BME280;52474;52.236;5.114;2024-03-23T12:37:57;100861.16;;;19.27;100.00
59170;BME280;52474;52.236;5.114;2024-03-23T12:40:23;100862.59;;;15.02;100.00
59170;BME280;52474;52.236;5.114;2024-03-23T12:42:49;100850.19;;;16.52;100.00
59170;BME280;52474;52.236;5.114;2024-03-23T12:45:14;100854.84;;;15.25;100.00
59170;BME280;52474;52.236;5.114;2024-03-23T12:47:40;100856.94;;;15.06;100.00
59170;BME280;52474;52.236;5.114;2024-03-23T12:50:06;100866.84;;;14.35;100.00
59170;BME280;52474;52.236;5.114;2024-03-23T12:52:33;100863.78;;;14.74;100.00
59170;BME280;52474;52.236;5.114;2024-03-23T12:54:59;100840.34;;;16.03;100.00
59170;BME280;52474;52.236;5.114;2024-03-23T12:57:25;100867.88;;;14.60;100.00
59170;BME280;52474;52.236;5.114;2024-03-23T12:59:51;100848.13;;;15.13;100.00
59170;BME280;52474;52.236;5.114;2024-03-23T13:02:21;100841.13;;;15.63;100.00
59170;BME280;52474;52.236;5.114;2024-03-23T13:04:53;100848.28;;;14.51;100.00
59170;BME280;52474;52.236;5.114;2024-03-23T13:07:20;100866.00;;;13.63;100.00
59170;BME280;52474;52.236;5.114;2024-03-23T13:09:47;100862.28;;;11.75;100.00
59170;BME280;52474;52.236;5.114;2024-03-23T13:12:12;100854.44;;;10.73;100.00
59170;BME280;52474;52.236;5.114;2024-03-23T13:14:38;100850.19;;;10.92;100.00
59170;BME280;52474;52.236;5.114;2024-03-23T13:17:05;100826.19;;;10.84;100.00
59170;BME280;52474;52.236;5.114;2024-03-23T13:19:31;100830.53;;;10.94;100.00
59170;BME280;52474;52.236;5.114;2024-03-23T13:21:58;100835.19;;;10.50;100.00
59170;BME280;52474;52.236;5.114;2024-03-23T13:24:27;100826.16;;;10.11;100.00
59170;BME280;52474;52.236;5.114;2024-03-23T13:26:54;100812.13;;;9.46;100.00
59170;BME280;52474;52.236;5.114;2024-03-23T13:29:20;100825.09;;;9.81;100.00
59170;BME280;52474;52.236;5.114;2024-03-23T13:31:48;100814.50;;;10.96;100.00
59170;BME280;52474;52.236;5.114;2024-03-23T13:34:14;100792.59;;;10.94;100.00
59170;BME280;52474;52.236;5.114;2024-03-23T13:36:41;100806.16;;;9.97;100.00
59170;BME280;52474;52.236;5.114;2024-03-23T13:39:07;100771.56;;;9.24;100.00
59170;BME280;52474;52.236;5.114;2024-03-23T13:41:40;100802.28;;;10.43;100.00
59170;BME280;52474;52.236;5.114;2024-03-23T13:44:06;100796.06;;;11.45;100.00
59170;BME280;52474;52.236;5.114;2024-03-23T13:46:33;100787.88;;;11.96;100.00
59170;BME280;52474;52.236;5.114;2024-03-23T13:48:58;100788.38;;;12.66;100.00
59170;BME280;52474;52.236;5.114;2024-03-23T13:51:25;100792.03;;;12.93;100.00
59170;BME280;52474;52.236;5.114;2024-03-23T13:53:53;100785.66;;;12.49;100.00